Time;durP1;ratioP1;P1;durP2;ratioP2;P2;SDS_P1;SDS_P2;PMS_P1;PMS_P2;Temp;Humidity;BMP_temperature;BMP_pressure;BME280_temperature;BME280_humidity;BME280_pressure;Samples;Min_cycle;Max_cycle;Signal;HPM_P1;HPM_P2
2021/11/20 00:01:16;;;;;;;7.47;1.63;;;;;;;;;;4987082;28;20038;-79
2021/11/20 00:03:44;;;;;;;4.93;1.33;;;;;;;;;;4988370;28;20132;-79
2021/11/20 00:06:13;;;;;;;7.47;1.23;;;;;;;;;;4986377;28;20057;-79
2021/11/20 00:08:39;;;;;;;8.15;1.60;;;;;;;;;;4985999;28;20062;-79
2021/11/20 00:11:07;;;;;;;5.47;1.75;;;;;;;;;;4985827;28;20510;-79
2021/11/20 00:13:34;;;;;;;7.55;1.80;;;;;;;;;;4986218;28;20533;-78
2021/11/20 00:16:01;;;;;;;6.68;1.88;;;;;;;;;;4982542;28;20092;-80
2021/11/20 00:18:29;;;;;;;7.63;1.80;;;;;;;;;;4988467;28;20101;-80
2021/11/20 00:20:58;;;;;;;5.82;1.75;;;;;;;;;;4978507;28;20077;-79
2021/11/20 00:23:33;;;;;;;6.15;1.45;;;;;;;;;;4984766;28;20059;-80
2021/11/20 00:26:00;;;;;;;7.07;1.88;;;;;;;;;;4980794;28;20065;-80
2021/11/20 00:28:39;;;;;;;7.97;2.15;;;;;;;;;;4985583;28;20132;-80
2021/11/20 00:31:06;;;;;;;6.07;1.60;;;;;;;;;;4984896;28;20054;-80
2021/11/20 00:33:34;;;;;;;5.60;1.88;;;;;;;;;;4983034;28;20054;-80
2021/11/20 00:36:01;;;;;;;7.10;1.60;;;;;;;;;;4986254;28;20570;-80
2021/11/20 00:38:29;;;;;;;7.80;1.67;;;;;;;;;;4985096;28;20644;-80
2021/11/20 00:40:58;;;;;;;6.63;1.45;;;;;;;;;;4990458;28;20538;-79
2021/11/20 00:43:25;;;;;;;6.55;1.65;;;;;;;;;;4981675;28;20070;-78
2021/11/20 00:45:51;;;;;;;6.13;1.42;;;;;;;;;;4985966;28;20058;-80
2021/11/20 00:48:19;;;;;;;6.53;1.90;;;;;;;;;;4987556;28;20054;-80
2021/11/20 00:50:47;;;;;;;8.32;1.80;;;;;;;;;;4985562;28;20109;-78
2021/11/20 00:53:13;;;;;;;7.13;1.55;;;;;;;;;;4977078;28;20280;-80
2021/11/20 00:55:40;;;;;;;6.40;1.77;;;;;;;;;;4990745;28;20116;-79
2021/11/20 00:58:06;;;;;;;7.90;1.75;;;;;;;;;;5004818;28;20066;-79
2021/11/20 01:00:41;;;;;;;6.55;2.22;;;;;;;;;;4988403;28;20443;-78
2021/11/20 01:03:08;;;;;;;8.10;1.92;;;;;;;;;;4989369;28;20062;-78
2021/11/20 01:05:35;;;;;;;5.68;1.90;;;;;;;;;;5002961;28;20093;-79
2021/11/20 01:08:02;;;;;;;7.13;1.83;;;;;;;;;;5009246;28;20568;-79
2021/11/20 01:10:30;;;;;;;6.78;1.77;;;;;;;;;;5012750;28;20083;-80
2021/11/20 01:12:57;;;;;;;6.88;1.30;;;;;;;;;;5007375;28;20061;-80
2021/11/20 01:15:26;;;;;;;7.63;1.50;;;;;;;;;;5001064;28;20475;-80
2021/11/20 01:17:52;;;;;;;6.18;1.60;;;;;;;;;;5007352;28;20065;-79
2021/11/20 01:20:20;;;;;;;4.93;1.63;;;;;;;;;;5011125;28;20104;-80
2021/11/20 01:22:46;;;;;;;8.70;1.50;;;;;;;;;;5010632;28;20053;-80
2021/11/20 01:25:13;;;;;;;8.57;1.52;;;;;;;;;;4995203;28;20122;-78
2021/11/20 01:27:40;;;;;;;5.10;1.40;;;;;;;;;;5012495;28;20062;-79
2021/11/20 01:30:07;;;;;;;6.72;2.00;;;;;;;;;;5007895;28;20045;-79
2021/11/20 01:32:33;;;;;;;8.10;1.90;;;;;;;;;;5009430;28;20057;-81
2021/11/20 01:35:00;;;;;;;7.38;1.60;;;;;;;;;;5008264;28;20053;-80
2021/11/20 01:37:26;;;;;;;5.20;1.40;;;;;;;;;;5008232;28;20623;-80
2021/11/20 01:39:53;;;;;;;7.65;1.80;;;;;;;;;;5008399;28;20061;-81
2021/11/20 01:42:25;;;;;;;5.97;1.50;;;;;;;;;;5005557;28;20078;-78
2021/11/20 01:44:57;;;;;;;7.18;2.17;;;;;;;;;;5007210;28;20045;-79
2021/11/20 01:47:46;;;;;;;6.13;1.58;;;;;;;;;;5009983;28;20057;-79
2021/11/20 01:50:15;;;;;;;5.50;1.60;;;;;;;;;;5005289;28;20333;-80
2021/11/20 01:52:47;;;;;;;6.05;1.88;;;;;;;;;;5007849;28;20069;-80
2021/11/20 01:55:20;;;;;;;4.85;1.48;;;;;;;;;;5002559;28;20038;-80
2021/11/20 01:58:00;;;;;;;6.38;1.63;;;;;;;;;;5015796;28;20587;-81
2021/11/20 02:00:29;;;;;;;7.90;1.63;;;;;;;;;;5006394;28;21420;-80
2021/11/20 02:02:58;;;;;;;7.18;2.08;;;;;;;;;;5003709;28;20066;-80
2021/11/20 02:05:43;;;;;;;8.70;2.00;;;;;;;;;;5009313;28;20475;-79
2021/11/20 02:08:22;;;;;;;4.95;1.50;;;;;;;;;;5014379;28;20120;-80
2021/11/20 02:10:54;;;;;;;8.98;1.55;;;;;;;;;;5008853;28;20073;-81
2021/11/20 02:13:22;;;;;;;6.57;1.60;;;;;;;;;;5005863;28;20092;-79
2021/11/20 02:15:58;;;;;;;8.23;1.88;;;;;;;;;;5008095;28;20099;-81
2021/11/20 02:18:26;;;;;;;7.38;1.30;;;;;;;;;;5009144;28;20110;-79
2021/11/20 02:21:05;;;;;;;6.18;1.52;;;;;;;;;;5010251;28;20065;-80
2021/11/20 02:23:31;;;;;;;7.50;1.70;;;;;;;;;;5007172;28;20062;-80
2021/11/20 02:26:00;;;;;;;8.30;1.65;;;;;;;;;;5010363;28;20109;-79
2021/11/20 02:28:26;;;;;;;7.57;1.48;;;;;;;;;;5007965;28;20053;-79
2021/11/20 02:30:53;;;;;;;7.15;1.77;;;;;;;;;;5014690;28;20050;-79
2021/11/20 02:33:24;;;;;;;8.07;2.15;;;;;;;;;;5008200;28;20128;-80
2021/11/20 02:35:52;;;;;;;6.70;1.38;;;;;;;;;;5015071;28;20065;-79
2021/11/20 02:38:26;;;;;;;7.60;2.05;;;;;;;;;;5012331;28;20053;-79
2021/11/20 02:40:52;;;;;;;8.43;1.83;;;;;;;;;;5008536;28;20065;-80
2021/11/20 02:43:19;;;;;;;8.13;1.60;;;;;;;;;;5011678;28;20111;-80
2021/11/20 02:45:53;;;;;;;8.07;2.35;;;;;;;;;;5009982;28;20057;-79
2021/11/20 02:48:20;;;;;;;6.07;1.52;;;;;;;;;;5010175;28;21337;-78
2021/11/20 02:50:50;;;;;;;6.25;1.73;;;;;;;;;;5010659;28;20058;-80
2021/11/20 02:53:22;;;;;;;4.57;1.30;;;;;;;;;;5009485;28;20188;-79
2021/11/20 02:55:48;;;;;;;;;;;;;;;;;;5009499;28;20550;-79
2021/11/20 02:58:15;;;;;;;6.40;1.40;;;;;;;;;;4993240;28;19933;-79
2021/11/20 03:00:42;;;;;;;6.72;1.63;;;;;;;;;;4983753;28;20564;-79
2021/11/20 03:03:08;;;;;;;4.95;1.40;;;;;;;;;;4984128;28;20058;-79
2021/11/20 03:05:35;;;;;;;7.25;1.27;;;;;;;;;;4985443;28;20452;-80
2021/11/20 03:08:01;;;;;;;8.30;1.50;;;;;;;;;;4991746;28;20061;-79
2021/11/20 03:10:28;;;;;;;6.82;1.65;;;;;;;;;;4979615;28;20074;-80
2021/11/20 03:12:54;;;;;;;7.57;1.58;;;;;;;;;;4988907;28;20523;-79
2021/11/20 03:15:20;;;;;;;7.72;1.90;;;;;;;;;;4991995;28;20104;-80
2021/11/20 03:17:47;;;;;;;8.65;1.63;;;;;;;;;;4986292;28;20636;-80
2021/11/20 03:20:15;;;;;;;4.85;1.45;;;;;;;;;;4985045;28;20450;-79
2021/11/20 03:22:44;;;;;;;5.55;1.30;;;;;;;;;;4987192;28;20465;-79
2021/11/20 03:25:11;;;;;;;6.05;1.70;;;;;;;;;;4984721;28;20058;-80
2021/11/20 03:27:37;;;;;;;5.53;1.50;;;;;;;;;;4984875;28;20098;-80
2021/11/20 03:30:05;;;;;;;5.35;1.40;;;;;;;;;;4986116;28;20493;-79
2021/11/20 03:32:39;;;;;;;6.82;1.83;;;;;;;;;;4986557;28;20076;-78
2021/11/20 03:35:09;;;;;;;7.68;1.45;;;;;;;;;;4985804;28;20624;-80
2021/11/20 03:37:35;;;;;;;7.72;1.75;;;;;;;;;;4986621;28;20128;-80
2021/11/20 03:40:02;;;;;;;4.93;1.13;;;;;;;;;;4977570;28;20065;-79
2021/11/20 03:42:28;;;;;;;5.32;1.20;;;;;;;;;;4985247;28;20576;-78
2021/11/20 03:44:54;;;;;;;5.57;1.50;;;;;;;;;;4984792;28;20089;-81
2021/11/20 03:47:21;;;;;;;4.93;1.23;;;;;;;;;;4980180;28;20079;-79
2021/11/20 03:49:47;;;;;;;10.20;1.95;;;;;;;;;;4985498;28;20062;-80
2021/11/20 03:52:14;;;;;;;6.35;1.40;;;;;;;;;;4967115;28;20115;-80
2021/11/20 03:54:41;;;;;;;6.28;1.40;;;;;;;;;;4986248;28;20069;-79
2021/11/20 03:57:07;;;;;;;4.53;1.30;;;;;;;;;;4992641;28;20073;-79
2021/11/20 03:59:34;;;;;;;5.40;1.20;;;;;;;;;;5006140;28;20070;-81
2021/11/20 04:02:00;;;;;;;7.43;1.60;;;;;;;;;;5010600;28;20119;-80
2021/11/20 04:04:27;;;;;;;7.22;1.23;;;;;;;;;;5009441;28;20069;-80
2021/11/20 04:06:54;;;;;;;7.75;1.58;;;;;;;;;;5006281;28;20494;-80
2021/11/20 04:09:22;;;;;;;6.05;1.50;;;;;;;;;;5006208;28;20068;-78
2021/11/20 04:11:49;;;;;;;6.20;1.50;;;;;;;;;;5005643;28;20474;-80
2021/11/20 04:14:16;;;;;;;8.20;1.40;;;;;;;;;;4992254;28;20054;-79
2021/11/20 04:16:43;;;;;;;7.43;1.60;;;;;;;;;;5008886;28;20058;-79
2021/11/20 04:19:09;;;;;;;7.25;1.45;;;;;;;;;;5011463;28;20130;-79
2021/11/20 04:21:37;;;;;;;4.80;1.33;;;;;;;;;;5008278;28;20053;-80
2021/11/20 04:24:05;;;;;;;7.65;1.40;;;;;;;;;;5010252;28;20088;-80
2021/11/20 04:26:31;;;;;;;6.25;1.45;;;;;;;;;;5009175;28;20041;-80
2021/11/20 04:28:58;;;;;;;6.57;1.50;;;;;;;;;;5008252;28;20239;-79
2021/11/20 04:31:25;;;;;;;8.45;1.98;;;;;;;;;;5009743;28;20058;-80
2021/11/20 04:33:52;;;;;;;3.67;1.10;;;;;;;;;;5009852;28;20438;-79
2021/11/20 04:36:20;;;;;;;6.97;1.40;;;;;;;;;;5009254;28;20069;-79
2021/11/20 04:38:46;;;;;;;6.80;1.65;;;;;;;;;;4990686;28;20057;-79
2021/11/20 04:41:13;;;;;;;7.00;1.45;;;;;;;;;;5005013;28;20069;-80
2021/11/20 04:43:40;;;;;;;6.90;1.60;;;;;;;;;;5007167;28;20060;-79
2021/11/20 04:46:07;;;;;;;5.32;1.17;;;;;;;;;;5003132;28;20077;-79
2021/11/20 04:48:33;;;;;;;7.32;1.40;;;;;;;;;;5004695;28;20077;-79
2021/11/20 04:51:00;;;;;;;6.13;1.38;;;;;;;;;;5003925;28;20120;-80
2021/11/20 04:53:27;;;;;;;5.82;1.50;;;;;;;;;;5008468;28;20061;-79
2021/11/20 04:55:57;;;;;;;5.57;1.20;;;;;;;;;;5004599;28;20074;-79
2021/11/20 04:58:23;;;;;;;5.88;1.67;;;;;;;;;;5010467;28;20050;-80
2021/11/20 05:00:51;;;;;;;3.78;1.33;;;;;;;;;;5007859;28;20439;-80
2021/11/20 05:03:19;;;;;;;7.78;1.10;;;;;;;;;;5010018;28;20077;-80
2021/11/20 05:05:47;;;;;;;6.32;1.20;;;;;;;;;;4991046;28;20061;-79
2021/11/20 05:08:13;;;;;;;5.05;1.25;;;;;;;;;;5009639;28;20062;-80
2021/11/20 05:10:40;;;;;;;7.32;1.45;;;;;;;;;;5008406;28;20450;-80
2021/11/20 05:13:07;;;;;;;4.75;1.15;;;;;;;;;;5005869;28;20125;-79
2021/11/20 05:15:35;;;;;;;7.68;1.40;;;;;;;;;;5007796;28;20057;-79
2021/11/20 05:18:01;;;;;;;6.18;1.17;;;;;;;;;;5007328;28;20474;-79
2021/11/20 05:20:28;;;;;;;3.92;1.25;;;;;;;;;;5008969;28;20524;-79
2021/11/20 05:22:54;;;;;;;4.53;1.20;;;;;;;;;;4998232;28;20084;-80
2021/11/20 05:25:21;;;;;;;7.00;1.20;;;;;;;;;;5007359;28;20512;-80
2021/11/20 05:27:52;;;;;;;5.82;1.35;;;;;;;;;;5005401;28;20485;-79
2021/11/20 05:30:25;;;;;;;7.40;1.50;;;;;;;;;;5006534;28;22580;-80
2021/11/20 05:32:52;;;;;;;6.35;1.45;;;;;;;;;;5008686;28;20458;-80
2021/11/20 05:35:19;;;;;;;5.43;1.40;;;;;;;;;;5009115;28;20041;-80
2021/11/20 05:37:46;;;;;;;6.10;1.20;;;;;;;;;;5011016;28;20080;-79
2021/11/20 05:40:15;;;;;;;7.10;1.55;;;;;;;;;;4991474;28;20073;-80
2021/11/20 05:42:42;;;;;;;7.22;1.40;;;;;;;;;;5006134;28;20061;-80
2021/11/20 05:45:09;;;;;;;4.78;1.25;;;;;;;;;;5005889;28;20537;-80
2021/11/20 05:47:35;;;;;;;9.18;1.60;;;;;;;;;;5008556;28;20136;-79
2021/11/20 05:50:02;;;;;;;5.88;1.17;;;;;;;;;;5006733;28;20559;-80
2021/11/20 05:52:28;;;;;;;5.45;1.30;;;;;;;;;;5010723;28;20130;-80
2021/11/20 05:54:56;;;;;;;4.50;1.08;;;;;;;;;;5008637;28;20077;-79
2021/11/20 05:57:23;;;;;;;5.50;0.90;;;;;;;;;;5008350;28;20129;-79
2021/11/20 05:59:49;;;;;;;4.22;1.00;;;;;;;;;;5006795;28;20053;-80
2021/11/20 06:02:16;;;;;;;6.20;1.50;;;;;;;;;;5012036;28;20061;-80
2021/11/20 06:04:44;;;;;;;7.05;1.58;;;;;;;;;;4958840;28;20058;-80
2021/11/20 06:07:11;;;;;;;6.43;1.67;;;;;;;;;;5005572;28;20497;-81
2021/11/20 06:09:39;;;;;;;5.30;1.30;;;;;;;;;;5007646;28;20065;-80
2021/11/20 06:12:06;;;;;;;6.85;1.40;;;;;;;;;;5009016;28;20046;-80
2021/11/20 06:14:33;;;;;;;6.00;1.40;;;;;;;;;;5007829;28;20065;-80
2021/11/20 06:16:59;;;;;;;4.40;0.98;;;;;;;;;;5007031;28;20073;-80
2021/11/20 06:19:25;;;;;;;4.05;1.10;;;;;;;;;;5008141;28;20056;-80
2021/11/20 06:21:52;;;;;;;3.80;1.02;;;;;;;;;;5007028;28;20061;-80
2021/11/20 06:24:19;;;;;;;5.10;1.00;;;;;;;;;;5008810;28;20068;-80
2021/11/20 06:26:46;;;;;;;3.83;1.13;;;;;;;;;;4997625;28;20054;-80
2021/11/20 06:29:13;;;;;;;4.78;1.40;;;;;;;;;;5005524;28;20050;-78
2021/11/20 06:31:40;;;;;;;3.90;0.93;;;;;;;;;;5007396;28;20505;-79
2021/11/20 06:34:06;;;;;;;4.70;0.80;;;;;;;;;;5009280;28;20207;-80
2021/11/20 06:36:33;;;;;;;4.43;1.10;;;;;;;;;;5005518;28;20061;-78
2021/11/20 06:39:00;;;;;;;4.47;1.08;;;;;;;;;;4990785;28;20069;-79
2021/11/20 06:41:26;;;;;;;4.05;0.90;;;;;;;;;;5006842;28;20089;-78
2021/11/20 06:43:53;;;;;;;3.92;1.13;;;;;;;;;;5008017;28;20054;-77
2021/11/20 06:46:19;;;;;;;5.30;1.20;;;;;;;;;;5014470;28;20766;-77
2021/11/20 06:48:46;;;;;;;6.63;1.30;;;;;;;;;;5007426;28;20070;-78
2021/11/20 06:51:13;;;;;;;4.10;1.00;;;;;;;;;;5005889;28;20451;-78
2021/11/20 06:53:40;;;;;;;5.70;1.25;;;;;;;;;;5012183;28;20493;-77
2021/11/20 06:56:11;;;;;;;2.55;0.85;;;;;;;;;;5013684;28;20057;-78
2021/11/20 07:01:08;;;;;;;4.47;1.10;;;;;;;;;;5012729;28;20057;-76
2021/11/20 07:03:36;;;;;;;2.42;0.80;;;;;;;;;;5006403;28;20069;-77
2021/11/20 07:06:05;;;;;;;4.00;1.20;;;;;;;;;;5013587;28;20064;-76
2021/11/20 07:08:31;;;;;;;3.63;1.00;;;;;;;;;;4988950;28;20061;-77
2021/11/20 07:10:58;;;;;;;7.30;1.33;;;;;;;;;;5012246;28;20044;-77
2021/11/20 07:13:25;;;;;;;3.22;0.93;;;;;;;;;;5012058;28;20034;-77
2021/11/20 07:15:52;;;;;;;4.15;1.35;;;;;;;;;;5002730;28;20069;-76
2021/11/20 07:18:19;;;;;;;4.28;1.02;;;;;;;;;;5013362;28;20100;-75
2021/11/20 07:20:46;;;;;;;6.78;0.93;;;;;;;;;;5014816;28;20066;-77
2021/11/20 07:23:13;;;;;;;4.15;1.00;;;;;;;;;;5003389;28;20057;-78
2021/11/20 07:25:40;;;;;;;4.43;0.82;;;;;;;;;;5009278;28;20069;-77
2021/11/20 07:28:07;;;;;;;2.65;0.90;;;;;;;;;;4997282;28;20111;-77
2021/11/20 07:30:35;;;;;;;4.30;1.00;;;;;;;;;;5012721;28;20068;-76
2021/11/20 07:33:02;;;;;;;7.30;2.78;;;;;;;;;;5006590;28;20070;-78
2021/11/20 07:35:30;;;;;;;7.82;2.22;;;;;;;;;;5004924;28;20146;-78
2021/11/20 07:37:56;;;;;;;4.78;2.00;;;;;;;;;;5002417;28;20069;-76
2021/11/20 07:40:25;;;;;;;4.25;1.88;;;;;;;;;;5005787;28;20499;-76
2021/11/20 07:42:51;;;;;;;4.68;1.50;;;;;;;;;;4988712;28;20116;-78
2021/11/20 07:45:18;;;;;;;3.63;1.65;;;;;;;;;;5003987;28;20061;-78
2021/11/20 07:47:45;;;;;;;5.43;1.80;;;;;;;;;;5002779;28;20069;-78
2021/11/20 07:50:12;;;;;;;11.52;4.05;;;;;;;;;;4981610;28;20074;-78
2021/11/20 07:52:38;;;;;;;27.52;8.52;;;;;;;;;;5006457;28;20065;-76
2021/11/20 07:55:06;;;;;;;21.88;5.93;;;;;;;;;;5004168;28;20060;-77
2021/11/20 07:57:32;;;;;;;15.88;4.97;;;;;;;;;;5002835;28;20116;-76
2021/11/20 07:59:59;;;;;;;14.55;4.38;;;;;;;;;;5001067;28;20072;-76
2021/11/20 08:02:25;;;;;;;12.85;3.70;;;;;;;;;;5001991;28;20034;-77
2021/11/20 08:04:52;;;;;;;13.68;4.53;;;;;;;;;;5003972;28;20033;-77
2021/11/20 08:07:18;;;;;;;8.23;2.78;;;;;;;;;;5004589;28;20509;-77
2021/11/20 08:09:45;;;;;;;13.32;3.90;;;;;;;;;;5003092;28;20076;-78
2021/11/20 08:12:11;;;;;;;10.90;3.70;;;;;;;;;;5009723;28;20053;-78
2021/11/20 08:14:38;;;;;;;7.45;3.15;;;;;;;;;;5005789;28;20057;-77
2021/11/20 08:17:04;;;;;;;8.15;2.70;;;;;;;;;;5002320;28;20141;-77
2021/11/20 08:19:32;;;;;;;12.85;2.83;;;;;;;;;;5005933;28;20065;-77
2021/11/20 08:21:58;;;;;;;8.10;2.70;;;;;;;;;;5004663;28;20054;-78
2021/11/20 08:24:26;;;;;;;11.60;2.80;;;;;;;;;;5001958;28;20072;-76
2021/11/20 08:26:53;;;;;;;7.55;2.22;;;;;;;;;;4997771;28;20104;-77
2021/11/20 08:29:20;;;;;;;8.68;2.95;;;;;;;;;;5002058;28;20532;-78
2021/11/20 08:31:48;;;;;;;6.75;2.22;;;;;;;;;;5007160;28;20049;-77
2021/11/20 08:34:16;;;;;;;8.60;2.35;;;;;;;;;;5007948;28;20977;-78
2021/11/20 08:36:43;;;;;;;6.57;2.30;;;;;;;;;;5006594;28;20057;-78
2021/11/20 08:39:11;;;;;;;7.82;2.20;;;;;;;;;;5005034;28;20112;-78
2021/11/20 08:41:38;;;;;;;6.22;2.03;;;;;;;;;;4989889;28;20054;-78
2021/11/20 08:44:04;;;;;;;9.15;2.42;;;;;;;;;;4998896;28;20049;-78
2021/11/20 08:46:31;;;;;;;5.32;1.88;;;;;;;;;;5007189;28;21693;-78
2021/11/20 08:48:57;;;;;;;5.05;1.33;;;;;;;;;;5001435;28;20455;-79
2021/11/20 08:51:26;;;;;;;5.25;2.17;;;;;;;;;;4995153;28;20061;-78
2021/11/20 08:53:53;;;;;;;9.32;2.10;;;;;;;;;;5004039;28;20104;-77
2021/11/20 08:56:20;;;;;;;8.57;2.58;;;;;;;;;;5002730;28;20123;-78
2021/11/20 08:58:47;;;;;;;7.45;1.95;;;;;;;;;;5010157;28;20058;-77
2021/11/20 09:01:22;;;;;;;7.40;2.40;;;;;;;;;;5007859;28;20068;-77
2021/11/20 09:03:58;;;;;;;8.13;1.92;;;;;;;;;;5010359;28;20451;-78
2021/11/20 09:06:33;;;;;;;5.93;1.58;;;;;;;;;;5007761;28;21481;-77
2021/11/20 09:09:20;;;;;;;5.43;1.80;;;;;;;;;;5007819;28;20073;-80
2021/11/20 09:12:07;;;;;;;8.85;2.08;;;;;;;;;;5009141;28;20446;-76
2021/11/20 09:14:36;;;;;;;4.82;1.33;;;;;;;;;;5002503;28;20665;-79
2021/11/20 09:17:03;;;;;;;6.15;1.70;;;;;;;;;;5008224;28;20109;-78
2021/11/20 09:19:31;;;;;;;5.72;1.90;;;;;;;;;;5007121;28;20116;-78
2021/11/20 09:21:58;;;;;;;5.72;1.77;;;;;;;;;;5005668;28;20536;-77
2021/11/20 09:24:30;;;;;;;6.15;1.52;;;;;;;;;;5002639;28;20050;-78
2021/11/20 09:26:57;;;;;;;3.38;1.30;;;;;;;;;;5004487;28;20054;-76
2021/11/20 09:29:25;;;;;;;7.22;1.50;;;;;;;;;;5006756;28;20065;-78
2021/11/20 09:31:52;;;;;;;8.00;1.92;;;;;;;;;;5000703;28;20061;-77
2021/11/20 09:34:18;;;;;;;6.65;1.73;;;;;;;;;;5007488;28;20088;-77
2021/11/20 09:36:46;;;;;;;5.90;1.27;;;;;;;;;;5006413;28;20108;-77
2021/11/20 09:39:13;;;;;;;4.53;1.25;;;;;;;;;;5004122;28;20034;-78
2021/11/20 09:41:58;;;;;;;3.80;1.13;;;;;;;;;;5008382;28;20504;-78
2021/11/20 09:44:25;;;;;;;4.18;1.30;;;;;;;;;;5006957;28;20117;-78
2021/11/20 09:46:53;;;;;;;6.05;1.60;;;;;;;;;;5005441;28;20062;-79
2021/11/20 09:49:41;;;;;;;7.03;1.45;;;;;;;;;;5004105;28;20116;-77
2021/11/20 09:52:07;;;;;;;4.45;1.33;;;;;;;;;;5005658;28;20052;-80
2021/11/20 09:54:37;;;;;;;2.97;1.10;;;;;;;;;;5005595;28;20065;-77
2021/11/20 09:57:16;;;;;;;5.00;1.15;;;;;;;;;;5012355;28;20604;-79
2021/11/20 09:59:43;;;;;;;3.38;1.25;;;;;;;;;;4983851;28;20038;-78
2021/11/20 10:02:13;;;;;;;4.57;1.40;;;;;;;;;;4999488;28;20064;-76
2021/11/20 10:04:54;;;;;;;3.97;1.30;;;;;;;;;;5007689;28;20115;-76
2021/11/20 10:07:20;;;;;;;;;;;;;;;;;;5006407;28;20116;-77
2021/11/20 10:09:49;;;;;;;3.50;1.30;;;;;;;;;;5002312;28;19952;-77
2021/11/20 10:12:39;;;;;;;4.68;1.10;;;;;;;;;;5007288;28;20099;-78
2021/11/20 10:15:10;;;;;;;2.15;0.95;;;;;;;;;;4990687;28;20084;-77
2021/11/20 10:17:59;;;;;;;3.03;0.98;;;;;;;;;;5012165;28;20061;-79
2021/11/20 10:20:29;;;;;;;4.30;1.10;;;;;;;;;;4969480;28;20475;-80
2021/11/20 10:23:03;;;;;;;4.68;1.08;;;;;;;;;;4987579;28;20108;-79
2021/11/20 10:25:32;;;;;;;4.80;1.10;;;;;;;;;;5006361;28;20093;-81
2021/11/20 10:28:17;;;;;;;5.88;1.42;;;;;;;;;;5004894;28;20236;-79
2021/11/20 10:31:02;;;;;;;4.20;1.52;;;;;;;;;;5006670;28;20196;-80
2021/11/20 10:33:36;;;;;;;3.53;0.93;;;;;;;;;;5003921;28;20967;-80
2021/11/20 10:36:09;;;;;;;3.15;0.93;;;;;;;;;;5003039;28;20069;-80
2021/11/20 10:38:46;;;;;;;4.32;1.02;;;;;;;;;;4995886;28;20073;-79
2021/11/20 10:41:19;;;;;;;3.58;1.10;;;;;;;;;;5005459;28;20038;-79
2021/11/20 10:43:51;;;;;;;2.67;0.93;;;;;;;;;;5006309;28;20029;-78
2021/11/20 10:46:26;;;;;;;4.22;1.40;;;;;;;;;;5007910;28;20356;-77
2021/11/20 10:49:10;;;;;;;2.25;0.80;;;;;;;;;;5010729;28;20053;-78
2021/11/20 10:51:55;;;;;;;5.95;1.38;;;;;;;;;;5006230;28;20061;-78
2021/11/20 10:54:40;;;;;;;2.90;1.10;;;;;;;;;;5005857;28;20054;-78
2021/11/20 10:57:06;;;;;;;3.58;0.90;;;;;;;;;;5006886;28;20073;-79
2021/11/20 10:59:57;;;;;;;2.10;0.80;;;;;;;;;;4998994;28;20096;-79
2021/11/20 11:02:29;;;;;;;6.45;1.10;;;;;;;;;;5005284;28;22138;-78
2021/11/20 11:04:59;;;;;;;3.65;1.02;;;;;;;;;;5007177;28;20089;-77
2021/11/20 11:07:33;;;;;;;3.88;1.13;;;;;;;;;;5004294;28;20038;-79
2021/11/20 11:10:02;;;;;;;6.68;1.20;;;;;;;;;;4984665;28;20057;-78
2021/11/20 11:12:43;;;;;;;3.63;0.95;;;;;;;;;;4968577;28;20104;-79
2021/11/20 11:15:32;;;;;;;3.25;1.10;;;;;;;;;;4997629;28;20517;-79
2021/11/20 11:18:30;;;;;;;3.47;1.13;;;;;;;;;;4990782;28;20065;-78
2021/11/20 11:21:12;;;;;;;6.88;0.95;;;;;;;;;;4981484;28;20070;-79
2021/11/20 11:23:39;;;;;;;3.58;1.00;;;;;;;;;;5006853;28;20057;-80
2021/11/20 11:26:07;;;;;;;2.88;1.00;;;;;;;;;;5005192;28;20107;-79
2021/11/20 11:28:34;;;;;;;2.47;0.93;;;;;;;;;;5006067;28;20541;-79
2021/11/20 11:31:19;;;;;;;2.78;0.90;;;;;;;;;;4987076;28;20126;-78
2021/11/20 11:33:50;;;;;;;4.78;1.00;;;;;;;;;;5008127;28;20045;-78
2021/11/20 11:36:29;;;;;;;5.88;0.93;;;;;;;;;;5008500;28;20607;-79
2021/11/20 11:39:15;;;;;;;2.15;0.77;;;;;;;;;;4993593;28;20057;-78
2021/11/20 11:41:54;;;;;;;3.42;1.00;;;;;;;;;;5006005;28;20375;-78
2021/11/20 11:44:46;;;;;;;2.22;0.70;;;;;;;;;;5004156;28;21362;-81
2021/11/20 11:47:18;;;;;;;4.47;0.88;;;;;;;;;;4975888;28;20084;-80
2021/11/20 11:49:45;;;;;;;5.72;1.10;;;;;;;;;;4984493;28;20073;-79
2021/11/20 11:52:30;;;;;;;3.50;0.88;;;;;;;;;;5004469;28;20572;-80
2021/11/20 11:55:11;;;;;;;1.73;0.60;;;;;;;;;;4994777;28;20042;-81
2021/11/20 11:57:50;;;;;;;5.05;1.15;;;;;;;;;;5006687;28;20049;-79
2021/11/20 12:00:20;;;;;;;3.97;0.95;;;;;;;;;;5003017;28;20034;-78
2021/11/20 12:02:49;;;;;;;4.22;1.05;;;;;;;;;;5006558;28;20107;-81
2021/11/20 12:05:33;;;;;;;7.63;1.30;;;;;;;;;;5005940;28;20045;-79
2021/11/20 12:08:26;;;;;;;4.90;1.33;;;;;;;;;;4997385;28;20508;-79
2021/11/20 12:10:53;;;;;;;1.60;0.80;;;;;;;;;;4996767;28;20411;-82
2021/11/20 12:13:27;;;;;;;4.25;0.88;;;;;;;;;;4997228;28;20096;-80
2021/11/20 12:16:12;;;;;;;2.28;1.00;;;;;;;;;;4987715;28;20420;-80
2021/11/20 12:18:41;;;;;;;3.42;1.00;;;;;;;;;;5001216;28;20062;-80
2021/11/20 12:21:16;;;;;;;3.83;1.00;;;;;;;;;;4994903;28;20572;-81
2021/11/20 12:23:49;;;;;;;2.88;0.95;;;;;;;;;;4993864;28;20060;-81
2021/11/20 12:26:19;;;;;;;2.53;1.10;;;;;;;;;;5003959;28;21677;-78
2021/11/20 12:28:51;;;;;;;4.07;1.10;;;;;;;;;;4994649;28;20474;-81
2021/11/20 12:31:18;;;;;;;5.93;1.05;;;;;;;;;;5005903;28;20084;-79
2021/11/20 12:33:53;;;;;;;3.30;1.13;;;;;;;;;;5007167;28;20575;-80
2021/11/20 12:36:19;;;;;;;3.30;0.85;;;;;;;;;;5009121;28;20073;-80
2021/11/20 12:38:53;;;;;;;4.85;1.00;;;;;;;;;;5011007;28;20061;-82
2021/11/20 12:41:19;;;;;;;3.17;0.85;;;;;;;;;;4995668;28;20041;-79
2021/11/20 12:43:57;;;;;;;3.13;0.90;;;;;;;;;;5009680;28;20033;-79
2021/11/20 12:46:30;;;;;;;3.00;0.80;;;;;;;;;;5009028;28;21439;-81
2021/11/20 12:48:56;;;;;;;3.58;0.98;;;;;;;;;;5008325;28;20450;-80
2021/11/20 12:51:33;;;;;;;2.90;0.98;;;;;;;;;;4999224;28;20089;-82
2021/11/20 12:54:02;;;;;;;2.45;0.73;;;;;;;;;;5010498;28;20065;-80
2021/11/20 12:56:31;;;;;;;4.18;1.17;;;;;;;;;;4993940;28;20119;-80
2021/11/20 12:58:57;;;;;;;4.88;0.93;;;;;;;;;;5008555;28;20064;-78
2021/11/20 13:01:27;;;;;;;3.58;1.02;;;;;;;;;;5001604;28;20103;-80
2021/11/20 13:04:10;;;;;;;3.13;0.98;;;;;;;;;;5008658;28;20394;-80
2021/11/20 13:06:53;;;;;;;4.07;0.90;;;;;;;;;;5009503;28;20057;-80
2021/11/20 13:09:34;;;;;;;3.47;1.15;;;;;;;;;;5006265;28;20057;-79
2021/11/20 13:12:19;;;;;;;3.45;0.95;;;;;;;;;;5010219;28;20116;-79
2021/11/20 13:15:00;;;;;;;2.78;1.25;;;;;;;;;;4991963;28;20072;-79
2021/11/20 13:17:28;;;;;;;2.80;0.98;;;;;;;;;;5006084;28;21312;-79
2021/11/20 13:19:59;;;;;;;3.22;0.80;;;;;;;;;;5009477;28;20693;-80
2021/11/20 13:22:28;;;;;;;2.00;0.80;;;;;;;;;;5010770;28;20080;-78
2021/11/20 13:24:56;;;;;;;3.85;1.38;;;;;;;;;;5006870;28;20061;-79
2021/11/20 13:27:43;;;;;;;3.92;1.17;;;;;;;;;;5009896;28;20038;-79
2021/11/20 13:30:11;;;;;;;3.22;0.82;;;;;;;;;;5001405;28;20061;-80
2021/11/20 13:32:41;;;;;;;3.42;1.05;;;;;;;;;;4993082;28;20053;-80
2021/11/20 13:35:08;;;;;;;2.20;0.70;;;;;;;;;;5007391;28;20054;-80
2021/11/20 13:37:34;;;;;;;5.07;1.05;;;;;;;;;;5012803;28;20038;-80
2021/11/20 13:40:06;;;;;;;3.15;0.98;;;;;;;;;;5009781;28;20092;-80
2021/11/20 13:42:36;;;;;;;4.55;0.93;;;;;;;;;;5008466;28;20575;-79
2021/11/20 13:45:06;;;;;;;5.30;0.80;;;;;;;;;;5006767;28;20062;-81
2021/11/20 13:47:32;;;;;;;2.65;1.00;;;;;;;;;;5009860;28;20060;-81
2021/11/20 13:49:59;;;;;;;4.80;1.30;;;;;;;;;;4992009;28;20514;-80
2021/11/20 13:52:27;;;;;;;2.35;0.90;;;;;;;;;;5012660;28;20119;-80
2021/11/20 13:55:01;;;;;;;3.97;0.82;;;;;;;;;;5009683;28;20037;-82
2021/11/20 13:57:38;;;;;;;2.50;1.15;;;;;;;;;;5004201;28;20078;-83
2021/11/20 14:00:09;;;;;;;4.30;0.82;;;;;;;;;;4991063;28;20497;-82
2021/11/20 14:02:42;;;;;;;4.60;1.20;;;;;;;;;;4989833;28;20068;-81
2021/11/20 14:05:09;;;;;;;1.60;0.80;;;;;;;;;;4987245;28;20062;-79
2021/11/20 14:07:35;;;;;;;2.47;0.82;;;;;;;;;;4989314;28;20054;-84
2021/11/20 14:10:04;;;;;;;3.08;1.00;;;;;;;;;;4994631;28;20045;-83
2021/11/20 14:12:39;;;;;;;2.63;0.98;;;;;;;;;;4992921;28;20054;-82
2021/11/20 14:15:07;;;;;;;4.93;1.50;;;;;;;;;;4995775;28;20490;-81
2021/11/20 14:17:35;;;;;;;2.17;0.70;;;;;;;;;;4994075;28;20034;-81
2021/11/20 14:20:06;;;;;;;2.30;1.10;;;;;;;;;;4996060;28;20046;-82
2021/11/20 14:22:37;;;;;;;2.47;0.90;;;;;;;;;;5000657;28;20066;-83
2021/11/20 14:25:06;;;;;;;2.30;0.65;;;;;;;;;;4997266;28;20030;-82
2021/11/20 14:27:33;;;;;;;3.20;0.85;;;;;;;;;;5004968;28;20034;-81
2021/11/20 14:30:00;;;;;;;2.67;0.70;;;;;;;;;;5001454;28;20045;-82
2021/11/20 14:32:27;;;;;;;2.05;0.90;;;;;;;;;;4982841;28;20096;-80
2021/11/20 14:34:54;;;;;;;5.57;0.90;;;;;;;;;;5001587;28;20496;-80
2021/11/20 14:37:22;;;;;;;4.45;0.70;;;;;;;;;;4978005;28;20060;-81
2021/11/20 14:39:51;;;;;;;2.25;0.70;;;;;;;;;;4968186;28;20540;-82
2021/11/20 14:42:19;;;;;;;4.28;0.88;;;;;;;;;;4986708;28;20038;-83
2021/11/20 14:44:47;;;;;;;3.20;1.00;;;;;;;;;;5000893;28;20046;-83
2021/11/20 14:47:16;;;;;;;4.85;0.98;;;;;;;;;;5001485;28;20027;-79
2021/11/20 14:49:44;;;;;;;3.95;1.00;;;;;;;;;;4996921;28;20690;-78
2021/11/20 14:52:19;;;;;;;3.47;1.13;;;;;;;;;;4992388;28;20141;-78
2021/11/20 14:54:53;;;;;;;4.38;0.77;;;;;;;;;;5000467;28;20427;-79
2021/11/20 14:57:22;;;;;;;3.53;1.00;;;;;;;;;;5000727;28;21839;-78
2021/11/20 14:59:48;;;;;;;3.95;1.00;;;;;;;;;;5017558;28;20037;-78
2021/11/20 15:02:16;;;;;;;4.60;1.30;;;;;;;;;;5014262;28;20034;-79